El Moro, Colorado
Current Conditions -  °F | °C
As of 7:54 AM on Thursday 30 Oct 2014 (Local Time) from KTAD Reporting Station
Clear Clear  
Wind Chill: 25°   Ceiling: Unl
Heat Index: 33°   Visibility: 10mi
Dew Point: 18°   Wind: 9mph
Humidity: 54%   Direction: 290°WNW
Pressure: 30.38"   Gusts: NA
Location:  37.1661°N, 104.486°W
Report Text: KTAD 301354Z AUTO 29008KT 10SM CLR 01/M08 A3038 RMK AO2 SLP279 T00061078
Loading
Personal Weather Stations






























Interactive Weather Map
Tropical Storm Tracking
New forecast layout! Learn more

10-Day Weather Forecast

Advertisements
Track Severe Weather on mobile